sensor_id;sensor_type;location;lat;lon;timestamp;pressure;altitude;pressure_sealevel;temperature;humidity
19845;BME280;10083;51.038;7.012;2023-11-18T00:00:05;104592.28;;;6.49;100.00
19845;BME280;10083;51.038;7.012;2023-11-18T00:02:39;104576.97;;;6.61;100.00
19845;BME280;10083;51.038;7.012;2023-11-18T00:05:08;104562.50;;;6.40;100.00
19845;BME280;10083;51.038;7.012;2023-11-18T00:07:36;104556.09;;;6.53;100.00
19845;BME280;10083;51.038;7.012;2023-11-18T00:10:03;104545.63;;;6.56;100.00
19845;BME280;10083;51.038;7.012;2023-11-18T00:12:34;104539.47;;;6.57;100.00
19845;BME280;10083;51.038;7.012;2023-11-18T00:15:02;104531.41;;;6.55;100.00
19845;BME280;10083;51.038;7.012;2023-11-18T00:17:30;104522.75;;;6.59;100.00
19845;BME280;10083;51.038;7.012;2023-11-18T00:20:00;104509.84;;;6.51;100.00
19845;BME280;10083;51.038;7.012;2023-11-18T00:22:29;104501.34;;;6.58;100.00
19845;BME280;10083;51.038;7.012;2023-11-18T00:24:56;104500.13;;;6.35;100.00
19845;BME280;10083;51.038;7.012;2023-11-18T00:27:24;104503.75;;;6.53;100.00
19845;BME280;10083;51.038;7.012;2023-11-18T00:29:51;104500.53;;;6.43;100.00
19845;BME280;10083;51.038;7.012;2023-11-18T00:32:19;104501.13;;;6.37;100.00
19845;BME280;10083;51.038;7.012;2023-11-18T00:34:47;104500.72;;;6.29;100.00
19845;BME280;10083;51.038;7.012;2023-11-18T00:37:16;104494.63;;;6.32;100.00
19845;BME280;10083;51.038;7.012;2023-11-18T00:39:44;104477.91;;;6.51;100.00
19845;BME280;10083;51.038;7.012;2023-11-18T00:42:11;104471.84;;;6.21;100.00
19845;BME280;10083;51.038;7.012;2023-11-18T00:44:39;104466.19;;;6.15;100.00
19845;BME280;10083;51.038;7.012;2023-11-18T00:47:07;104469.19;;;6.21;100.00
19845;BME280;10083;51.038;7.012;2023-11-18T00:49:34;104460.19;;;6.19;100.00
19845;BME280;10083;51.038;7.012;2023-11-18T00:52:03;104442.22;;;6.15;100.00
19845;BME280;10083;51.038;7.012;2023-11-18T00:54:34;104438.09;;;6.04;100.00
19845;BME280;10083;51.038;7.012;2023-11-18T00:57:02;104435.84;;;6.11;100.00
19845;BME280;10083;51.038;7.012;2023-11-18T00:59:30;104436.41;;;6.06;100.00
19845;BME280;10083;51.038;7.012;2023-11-18T01:01:57;104424.38;;;6.12;100.00
19845;BME280;10083;51.038;7.012;2023-11-18T01:04:27;104429.28;;;6.21;100.00
19845;BME280;10083;51.038;7.012;2023-11-18T01:06:56;104419.78;;;6.26;100.00
19845;BME280;10083;51.038;7.012;2023-11-18T01:09:23;104415.53;;;6.29;100.00
19845;BME280;10083;51.038;7.012;2023-11-18T01:11:53;104396.13;;;6.32;100.00
19845;BME280;10083;51.038;7.012;2023-11-18T01:14:20;104388.97;;;6.13;100.00
19845;BME280;10083;51.038;7.012;2023-11-18T01:16:50;104385.38;;;6.13;100.00
19845;BME280;10083;51.038;7.012;2023-11-18T01:19:18;104396.13;;;6.32;100.00
19845;BME280;10083;51.038;7.012;2023-11-18T01:21:46;104404.16;;;6.16;100.00
19845;BME280;10083;51.038;7.012;2023-11-18T01:24:13;104406.66;;;6.13;100.00
19845;BME280;10083;51.038;7.012;2023-11-18T01:26:42;104422.34;;;6.24;100.00
19845;BME280;10083;51.038;7.012;2023-11-18T01:29:11;104425.66;;;6.36;100.00
19845;BME280;10083;51.038;7.012;2023-11-18T01:31:39;104421.34;;;6.22;100.00
19845;BME280;10083;51.038;7.012;2023-11-18T01:34:07;104410.25;;;6.13;100.00
19845;BME280;10083;51.038;7.012;2023-11-18T01:36:34;104414.09;;;6.36;100.00
19845;BME280;10083;51.038;7.012;2023-11-18T01:39:02;104398.75;;;6.30;100.00
19845;BME280;10083;51.038;7.012;2023-11-18T01:41:30;104380.75;;;6.43;100.00
19845;BME280;10083;51.038;7.012;2023-11-18T01:43:59;104361.19;;;6.42;100.00
19845;BME280;10083;51.038;7.012;2023-11-18T01:46:29;104338.88;;;6.40;100.00
19845;BME280;10083;51.038;7.012;2023-11-18T01:48:57;104316.47;;;6.35;100.00
19845;BME280;10083;51.038;7.012;2023-11-18T01:51:25;104304.75;;;6.49;100.00
19845;BME280;10083;51.038;7.012;2023-11-18T01:53:53;104305.06;;;6.38;100.00
19845;BME280;10083;51.038;7.012;2023-11-18T01:56:21;104277.22;;;6.49;100.00
19845;BME280;10083;51.038;7.012;2023-11-18T01:58:51;104269.63;;;6.39;100.00
19845;BME280;10083;51.038;7.012;2023-11-18T02:01:20;104245.22;;;6.47;100.00
19845;BME280;10083;51.038;7.012;2023-11-18T02:03:50;104228.47;;;6.32;100.00
19845;BME280;10083;51.038;7.012;2023-11-18T02:06:18;104214.00;;;6.27;100.00
19845;BME280;10083;51.038;7.012;2023-11-18T02:08:47;104215.69;;;6.25;100.00
19845;BME280;10083;51.038;7.012;2023-11-18T02:11:25;104206.94;;;6.27;100.00
19845;BME280;10083;51.038;7.012;2023-11-18T02:13:57;104211.81;;;6.36;100.00
19845;BME280;10083;51.038;7.012;2023-11-18T02:16:29;104200.44;;;6.21;100.00
19845;BME280;10083;51.038;7.012;2023-11-18T02:18:58;104201.41;;;6.23;100.00
19845;BME280;10083;51.038;7.012;2023-11-18T02:21:28;104191.84;;;6.26;100.00
19845;BME280;10083;51.038;7.012;2023-11-18T02:23:59;104180.09;;;6.23;100.00
19845;BME280;10083;51.038;7.012;2023-11-18T02:26:28;104167.81;;;6.25;100.00
19845;BME280;10083;51.038;7.012;2023-11-18T02:28:56;104161.94;;;6.32;100.00
19845;BME280;10083;51.038;7.012;2023-11-18T02:39:20;104154.03;;;6.33;100.00
19845;BME280;10083;51.038;7.012;2023-11-18T02:41:52;104146.66;;;6.28;100.00
19845;BME280;10083;51.038;7.012;2023-11-18T02:44:25;104136.59;;;6.40;100.00
19845;BME280;10083;51.038;7.012;2023-11-18T02:46:53;104129.31;;;6.36;100.00
19845;BME280;10083;51.038;7.012;2023-11-18T02:49:20;104132.91;;;6.19;100.00
19845;BME280;10083;51.038;7.012;2023-11-18T02:51:50;104137.53;;;6.23;100.00
19845;BME280;10083;51.038;7.012;2023-11-18T02:54:18;104133.03;;;6.40;100.00
19845;BME280;10083;51.038;7.012;2023-11-18T02:56:46;104124.53;;;6.29;100.00
19845;BME280;10083;51.038;7.012;2023-11-18T02:59:15;104124.44;;;6.27;100.00
19845;BME280;10083;51.038;7.012;2023-11-18T03:01:42;104120.09;;;6.47;100.00
19845;BME280;10083;51.038;7.012;2023-11-18T03:04:10;104129.03;;;6.30;100.00
19845;BME280;10083;51.038;7.012;2023-11-18T03:06:39;104121.31;;;6.36;100.00
19845;BME280;10083;51.038;7.012;2023-11-18T03:09:07;104127.78;;;6.41;100.00
19845;BME280;10083;51.038;7.012;2023-11-18T03:11:36;104123.59;;;6.46;100.00
19845;BME280;10083;51.038;7.012;2023-11-18T03:14:04;104126.34;;;6.48;100.00
19845;BME280;10083;51.038;7.012;2023-11-18T03:16:38;104126.81;;;6.39;100.00
19845;BME280;10083;51.038;7.012;2023-11-18T03:19:05;104128.97;;;6.11;100.00
19845;BME280;10083;51.038;7.012;2023-11-18T03:21:34;104122.19;;;6.35;100.00
19845;BME280;10083;51.038;7.012;2023-11-18T03:24:05;104126.84;;;6.21;100.00
19845;BME280;10083;51.038;7.012;2023-11-18T03:26:33;104123.75;;;6.31;100.00
19845;BME280;10083;51.038;7.012;2023-11-18T03:29:00;104127.88;;;6.25;100.00
19845;BME280;10083;51.038;7.012;2023-11-18T03:31:28;104115.88;;;6.33;100.00
19845;BME280;10083;51.038;7.012;2023-11-18T03:33:57;104114.50;;;6.23;100.00
19845;BME280;10083;51.038;7.012;2023-11-18T03:36:25;104106.06;;;6.14;100.00
19845;BME280;10083;51.038;7.012;2023-11-18T03:38:52;104098.28;;;6.36;100.00
19845;BME280;10083;51.038;7.012;2023-11-18T03:41:19;104085.91;;;6.19;100.00
19845;BME280;10083;51.038;7.012;2023-11-18T03:43:49;104083.94;;;6.33;100.00
19845;BME280;10083;51.038;7.012;2023-11-18T03:46:17;104080.56;;;6.37;100.00
19845;BME280;10083;51.038;7.012;2023-11-18T03:48:48;104085.53;;;6.29;100.00
19845;BME280;10083;51.038;7.012;2023-11-18T03:51:17;104092.81;;;6.33;100.00
19845;BME280;10083;51.038;7.012;2023-11-18T03:53:49;104089.38;;;6.36;100.00
19845;BME280;10083;51.038;7.012;2023-11-18T03:56:19;104088.91;;;6.45;100.00
19845;BME280;10083;51.038;7.012;2023-11-18T03:58:47;104099.06;;;6.34;100.00
19845;BME280;10083;51.038;7.012;2023-11-18T04:01:20;104099.81;;;6.31;100.00
19845;BME280;10083;51.038;7.012;2023-11-18T04:03:47;104100.06;;;6.18;100.00
19845;BME280;10083;51.038;7.012;2023-11-18T04:06:16;104104.53;;;6.19;100.00
19845;BME280;10083;51.038;7.012;2023-11-18T04:08:44;104101.56;;;6.31;100.00
19845;BME280;10083;51.038;7.012;2023-11-18T04:11:13;104103.25;;;6.29;100.00
19845;BME280;10083;51.038;7.012;2023-11-18T04:13:40;104095.47;;;6.33;100.00
19845;BME280;10083;51.038;7.012;2023-11-18T04:16:11;104106.50;;;6.23;100.00
19845;BME280;10083;51.038;7.012;2023-11-18T04:18:41;104108.13;;;6.20;100.00
19845;BME280;10083;51.038;7.012;2023-11-18T04:21:10;104099.59;;;6.27;100.00
19845;BME280;10083;51.038;7.012;2023-11-18T04:23:41;104106.47;;;6.22;100.00
19845;BME280;10083;51.038;7.012;2023-11-18T04:26:09;104101.97;;;6.21;100.00
19845;BME280;10083;51.038;7.012;2023-11-18T04:28:37;104088.34;;;6.15;100.00
19845;BME280;10083;51.038;7.012;2023-11-18T04:31:05;104091.09;;;6.16;100.00
19845;BME280;10083;51.038;7.012;2023-11-18T04:33:32;104078.72;;;6.17;100.00
19845;BME280;10083;51.038;7.012;2023-11-18T04:36:00;104084.03;;;6.17;100.00
19845;BME280;10083;51.038;7.012;2023-11-18T04:38:28;104089.59;;;6.04;100.00
19845;BME280;10083;51.038;7.012;2023-11-18T04:40:58;104085.78;;;6.16;100.00
19845;BME280;10083;51.038;7.012;2023-11-18T04:43:26;104082.59;;;6.06;100.00
19845;BME280;10083;51.038;7.012;2023-11-18T04:45:54;104089.44;;;5.83;100.00
19845;BME280;10083;51.038;7.012;2023-11-18T04:48:22;104091.72;;;5.93;100.00
19845;BME280;10083;51.038;7.012;2023-11-18T04:50:50;104105.56;;;6.04;100.00
19845;BME280;10083;51.038;7.012;2023-11-18T04:53:18;104105.94;;;6.11;100.00
19845;BME280;10083;51.038;7.012;2023-11-18T04:55:45;104113.78;;;6.08;100.00
19845;BME280;10083;51.038;7.012;2023-11-18T04:58:14;104114.50;;;6.06;100.00
19845;BME280;10083;51.038;7.012;2023-11-18T05:00:42;104112.16;;;6.12;100.00
19845;BME280;10083;51.038;7.012;2023-11-18T05:03:09;104129.28;;;6.17;100.00
19845;BME280;10083;51.038;7.012;2023-11-18T05:05:38;104139.72;;;6.14;100.00
19845;BME280;10083;51.038;7.012;2023-11-18T05:08:06;104136.19;;;6.13;100.00
19845;BME280;10083;51.038;7.012;2023-11-18T05:10:34;104127.31;;;6.13;100.00
19845;BME280;10083;51.038;7.012;2023-11-18T05:13:07;104118.44;;;6.14;100.00
19845;BME280;10083;51.038;7.012;2023-11-18T05:15:36;104116.19;;;6.21;100.00
19845;BME280;10083;51.038;7.012;2023-11-18T05:18:05;104111.47;;;6.16;100.00
19845;BME280;10083;51.038;7.012;2023-11-18T05:20:37;104087.84;;;6.04;100.00
19845;BME280;10083;51.038;7.012;2023-11-18T05:23:15;104093.81;;;6.18;100.00
19845;BME280;10083;51.038;7.012;2023-11-18T05:25:43;104086.00;;;6.21;100.00
19845;BME280;10083;51.038;7.012;2023-11-18T05:28:10;104083.03;;;6.15;100.00
19845;BME280;10083;51.038;7.012;2023-11-18T05:30:41;104080.47;;;6.16;100.00
19845;BME280;10083;51.038;7.012;2023-11-18T05:33:10;104074.53;;;6.22;100.00
19845;BME280;10083;51.038;7.012;2023-11-18T05:35:43;104093.41;;;6.09;100.00
19845;BME280;10083;51.038;7.012;2023-11-18T05:38:15;104092.75;;;6.32;100.00
19845;BME280;10083;51.038;7.012;2023-11-18T05:40:44;104103.84;;;6.23;100.00
19845;BME280;10083;51.038;7.012;2023-11-18T05:43:22;104095.13;;;6.26;100.00
19845;BME280;10083;51.038;7.012;2023-11-18T05:45:53;104096.53;;;6.37;100.00
19845;BME280;10083;51.038;7.012;2023-11-18T05:48:37;104093.41;;;6.46;100.00
19845;BME280;10083;51.038;7.012;2023-11-18T05:51:05;104094.78;;;6.38;100.00
19845;BME280;10083;51.038;7.012;2023-11-18T05:53:32;104080.44;;;6.34;100.00
19845;BME280;10083;51.038;7.012;2023-11-18T05:56:04;104062.72;;;6.54;100.00
19845;BME280;10083;51.038;7.012;2023-11-18T05:58:32;104065.88;;;6.45;100.00
19845;BME280;10083;51.038;7.012;2023-11-18T06:01:04;104063.84;;;6.59;100.00
19845;BME280;10083;51.038;7.012;2023-11-18T06:03:33;104045.41;;;6.63;100.00
19845;BME280;10083;51.038;7.012;2023-11-18T06:06:04;104041.97;;;6.66;100.00
19845;BME280;10083;51.038;7.012;2023-11-18T06:08:32;104028.88;;;6.70;100.00
19845;BME280;10083;51.038;7.012;2023-11-18T06:11:00;104029.03;;;6.73;100.00
19845;BME280;10083;51.038;7.012;2023-11-18T06:13:39;104005.69;;;6.68;100.00
19845;BME280;10083;51.038;7.012;2023-11-18T06:16:12;104002.59;;;6.78;100.00
19845;BME280;10083;51.038;7.012;2023-11-18T06:18:42;104003.09;;;6.69;100.00
19845;BME280;10083;51.038;7.012;2023-11-18T06:21:12;103985.56;;;6.74;100.00
19845;BME280;10083;51.038;7.012;2023-11-18T06:23:40;103981.31;;;6.59;100.00
19845;BME280;10083;51.038;7.012;2023-11-18T06:26:07;103982.88;;;6.74;100.00
19845;BME280;10083;51.038;7.012;2023-11-18T06:28:38;103982.00;;;6.74;100.00
19845;BME280;10083;51.038;7.012;2023-11-18T06:31:06;103969.56;;;6.74;100.00
19845;BME280;10083;51.038;7.012;2023-11-18T06:33:40;103974.16;;;6.77;100.00
19845;BME280;10083;51.038;7.012;2023-11-18T06:36:09;103980.63;;;6.83;100.00
19845;BME280;10083;51.038;7.012;2023-11-18T06:38:38;103977.22;;;6.86;100.00
19845;BME280;10083;51.038;7.012;2023-11-18T06:41:11;103967.47;;;6.87;100.00
19845;BME280;10083;51.038;7.012;2023-11-18T06:43:40;103964.72;;;6.85;100.00
19845;BME280;10083;51.038;7.012;2023-11-18T06:46:18;103950.78;;;6.91;100.00
19845;BME280;10083;51.038;7.012;2023-11-18T06:48:50;103946.91;;;6.84;100.00
19845;BME280;10083;51.038;7.012;2023-11-18T07:00:22;104022.69;;;6.91;100.00
19845;BME280;10083;51.038;7.012;2023-11-18T07:06:34;104010.84;;;6.84;100.00
19845;BME280;10083;51.038;7.012;2023-11-18T07:09:35;104015.34;;;6.85;100.00
19845;BME280;10083;51.038;7.012;2023-11-18T07:12:43;103990.31;;;6.81;100.00
19845;BME280;10083;51.038;7.012;2023-11-18T07:19:05;104027.38;;;6.96;100.00
19845;BME280;10083;51.038;7.012;2023-11-18T07:22:05;104019.84;;;7.07;100.00
19845;BME280;10083;51.038;7.012;2023-11-18T07:24:51;104028.84;;;7.09;100.00
19845;BME280;10083;51.038;7.012;2023-11-18T07:34:31;103991.97;;;7.19;100.00
19845;BME280;10083;51.038;7.012;2023-11-18T14:31:37;103356.59;;;9.68;100.00
19845;BME280;10083;51.038;7.012;2023-11-18T14:34:05;103376.19;;;9.67;100.00
19845;BME280;10083;51.038;7.012;2023-11-18T17:10:15;104675.09;;;9.31;100.00
19845;BME280;10083;51.038;7.012;2023-11-18T17:12:44;104700.66;;;9.45;100.00
19845;BME280;10083;51.038;7.012;2023-11-18T17:15:20;104704.97;;;9.41;100.00
19845;BME280;10083;51.038;7.012;2023-11-18T17:17:58;104681.91;;;9.24;100.00
19845;BME280;10083;51.038;7.012;2023-11-18T17:20:27;104687.38;;;9.46;100.00
19845;BME280;10083;51.038;7.012;2023-11-18T17:22:55;104686.38;;;9.44;100.00
19845;BME280;10083;51.038;7.012;2023-11-18T17:25:25;104699.50;;;9.38;100.00
19845;BME280;10083;51.038;7.012;2023-11-18T17:27:58;104711.63;;;9.30;100.00
19845;BME280;10083;51.038;7.012;2023-11-18T17:30:30;104760.78;;;9.53;100.00
19845;BME280;10083;51.038;7.012;2023-11-18T17:33:00;104749.97;;;9.50;100.00
19845;BME280;10083;51.038;7.012;2023-11-18T17:35:28;104769.59;;;9.50;100.00
19845;BME280;10083;51.038;7.012;2023-11-18T17:37:57;104785.63;;;9.31;100.00
19845;BME280;10083;51.038;7.012;2023-11-18T17:40:26;104794.75;;;9.35;100.00
19845;BME280;10083;51.038;7.012;2023-11-18T17:42:54;104839.97;;;9.48;100.00
19845;BME280;10083;51.038;7.012;2023-11-18T17:45:25;104861.53;;;9.33;100.00
19845;BME280;10083;51.038;7.012;2023-11-18T17:47:53;104892.25;;;9.41;100.00
19845;BME280;10083;51.038;7.012;2023-11-18T17:50:20;104991.13;;;9.58;100.00
19845;BME280;10083;51.038;7.012;2023-11-18T17:52:51;105014.72;;;9.47;100.00
19845;BME280;10083;51.038;7.012;2023-11-18T17:55:19;105024.03;;;9.55;100.00
19845;BME280;10083;51.038;7.012;2023-11-18T17:57:48;105035.53;;;9.52;100.00
19845;BME280;10083;51.038;7.012;2023-11-18T18:00:18;105043.97;;;9.62;100.00
19845;BME280;10083;51.038;7.012;2023-11-18T18:02:49;105038.47;;;9.59;100.00
19845;BME280;10083;51.038;7.012;2023-11-18T18:05:17;105056.94;;;9.52;100.00
19845;BME280;10083;51.038;7.012;2023-11-18T18:07:46;105085.34;;;9.68;100.00
19845;BME280;10083;51.038;7.012;2023-11-18T18:10:16;105092.94;;;9.77;100.00
19845;BME280;10083;51.038;7.012;2023-11-18T18:12:50;105072.66;;;9.64;100.00
19845;BME280;10083;51.038;7.012;2023-11-18T18:15:30;105080.69;;;9.64;100.00
19845;BME280;10083;51.038;7.012;2023-11-18T18:17:58;105124.59;;;9.68;100.00
19845;BME280;10083;51.038;7.012;2023-11-18T18:20:25;105128.28;;;9.70;100.00
19845;BME280;10083;51.038;7.012;2023-11-18T18:22:53;105140.88;;;9.72;100.00
19845;BME280;10083;51.038;7.012;2023-11-18T18:25:21;105134.69;;;9.56;100.00
19845;BME280;10083;51.038;7.012;2023-11-18T18:27:50;105155.19;;;9.73;100.00
19845;BME280;10083;51.038;7.012;2023-11-18T18:30:19;105148.22;;;9.76;100.00
19845;BME280;10083;51.038;7.012;2023-11-18T18:32:47;105151.03;;;9.62;100.00
19845;BME280;10083;51.038;7.012;2023-11-18T18:35:15;105208.19;;;9.80;100.00
19845;BME280;10083;51.038;7.012;2023-11-18T18:37:46;105214.41;;;9.79;100.00
19845;BME280;10083;51.038;7.012;2023-11-18T18:40:17;105244.31;;;9.88;100.00
19845;BME280;10083;51.038;7.012;2023-11-18T18:42:50;105233.31;;;9.82;100.00
19845;BME280;10083;51.038;7.012;2023-11-18T18:45:23;105224.88;;;9.74;100.00
19845;BME280;10083;51.038;7.012;2023-11-18T18:47:52;105260.31;;;9.86;100.00
19845;BME280;10083;51.038;7.012;2023-11-18T18:50:39;105253.13;;;9.85;100.00
19845;BME280;10083;51.038;7.012;2023-11-18T18:53:15;105263.00;;;9.86;100.00
19845;BME280;10083;51.038;7.012;2023-11-18T18:55:42;105303.22;;;9.88;100.00
19845;BME280;10083;51.038;7.012;2023-11-18T18:58:17;105321.97;;;9.88;100.00
19845;BME280;10083;51.038;7.012;2023-11-18T19:00:53;105336.03;;;9.84;100.00
19845;BME280;10083;51.038;7.012;2023-11-18T19:03:35;105367.91;;;9.79;100.00
19845;BME280;10083;51.038;7.012;2023-11-18T19:06:04;105428.59;;;9.95;100.00
19845;BME280;10083;51.038;7.012;2023-11-18T19:08:33;105438.38;;;9.94;100.00
19845;BME280;10083;51.038;7.012;2023-11-18T19:11:00;105419.38;;;9.90;100.00
19845;BME280;10083;51.038;7.012;2023-11-18T19:13:29;105447.66;;;9.85;100.00
19845;BME280;10083;51.038;7.012;2023-11-18T19:15:57;105516.03;;;9.94;100.00
19845;BME280;10083;51.038;7.012;2023-11-18T19:18:25;105563.16;;;9.91;100.00
19845;BME280;10083;51.038;7.012;2023-11-18T19:20:52;105623.97;;;10.08;100.00
19845;BME280;10083;51.038;7.012;2023-11-18T19:23:19;105616.31;;;9.99;100.00
19845;BME280;10083;51.038;7.012;2023-11-18T19:25:47;105616.59;;;10.04;100.00
19845;BME280;10083;51.038;7.012;2023-11-18T19:28:14;105619.06;;;10.01;100.00
19845;BME280;10083;51.038;7.012;2023-11-18T19:30:43;105619.66;;;9.95;100.00
19845;BME280;10083;51.038;7.012;2023-11-18T19:33:12;105660.44;;;10.06;100.00
19845;BME280;10083;51.038;7.012;2023-11-18T19:35:39;105662.72;;;10.15;100.00
19845;BME280;10083;51.038;7.012;2023-11-18T19:38:09;105676.25;;;10.16;100.00
19845;BME280;10083;51.038;7.012;2023-11-18T19:40:36;105661.78;;;10.14;100.00
19845;BME280;10083;51.038;7.012;2023-11-18T19:43:04;105674.50;;;10.17;100.00
19845;BME280;10083;51.038;7.012;2023-11-18T19:45:32;105664.56;;;10.30;100.00
19845;BME280;10083;51.038;7.012;2023-11-18T19:48:02;105607.69;;;10.20;100.00
19845;BME280;10083;51.038;7.012;2023-11-18T19:50:29;105591.03;;;10.25;100.00
19845;BME280;10083;51.038;7.012;2023-11-18T19:52:57;105594.66;;;10.26;100.00
19845;BME280;10083;51.038;7.012;2023-11-18T19:55:25;105580.84;;;10.34;100.00
19845;BME280;10083;51.038;7.012;2023-11-18T19:57:52;105557.44;;;10.32;100.00
19845;BME280;10083;51.038;7.012;2023-11-18T20:00:20;105531.69;;;10.18;100.00
19845;BME280;10083;51.038;7.012;2023-11-18T20:02:49;105541.31;;;10.30;100.00
19845;BME280;10083;51.038;7.012;2023-11-18T20:05:18;105533.28;;;10.30;100.00
19845;BME280;10083;51.038;7.012;2023-11-18T20:07:46;105513.59;;;10.30;100.00
19845;BME280;10083;51.038;7.012;2023-11-18T20:10:14;105518.69;;;10.25;100.00
19845;BME280;10083;51.038;7.012;2023-11-18T20:12:42;105522.81;;;10.35;100.00
19845;BME280;10083;51.038;7.012;2023-11-18T20:15:11;105540.53;;;10.33;100.00
19845;BME280;10083;51.038;7.012;2023-11-18T20:17:39;105529.72;;;10.31;100.00
19845;BME280;10083;51.038;7.012;2023-11-18T20:20:11;105515.00;;;10.39;100.00
19845;BME280;10083;51.038;7.012;2023-11-18T20:22:41;105519.31;;;10.54;100.00
19845;BME280;10083;51.038;7.012;2023-11-18T20:25:09;105481.31;;;10.44;100.00
19845;BME280;10083;51.038;7.012;2023-11-18T20:27:36;105491.63;;;10.37;100.00
19845;BME280;10083;51.038;7.012;2023-11-18T20:30:06;105530.22;;;10.40;100.00
19845;BME280;10083;51.038;7.012;2023-11-18T20:32:36;105580.06;;;10.53;100.00
19845;BME280;10083;51.038;7.012;2023-11-18T20:35:05;105556.78;;;10.36;100.00
19845;BME280;10083;51.038;7.012;2023-11-18T20:37:32;105588.63;;;10.46;100.00
19845;BME280;10083;51.038;7.012;2023-11-18T20:40:03;105590.53;;;10.49;100.00
19845;BME280;10083;51.038;7.012;2023-11-18T20:42:32;105574.44;;;10.49;100.00
19845;BME280;10083;51.038;7.012;2023-11-18T20:45:01;105609.81;;;10.58;100.00
19845;BME280;10083;51.038;7.012;2023-11-18T20:47:29;105593.91;;;10.61;100.00
19845;BME280;10083;51.038;7.012;2023-11-18T20:49:56;105571.44;;;10.59;100.00
19845;BME280;10083;51.038;7.012;2023-11-18T20:52:23;105559.63;;;10.55;100.00
19845;BME280;10083;51.038;7.012;2023-11-18T20:54:51;105548.00;;;10.55;100.00
19845;BME280;10083;51.038;7.012;2023-11-18T20:57:22;105549.41;;;10.64;100.00
19845;BME280;10083;51.038;7.012;2023-11-18T20:59:56;105536.59;;;10.59;100.00
19845;BME280;10083;51.038;7.012;2023-11-18T21:02:24;105563.41;;;10.59;100.00
19845;BME280;10083;51.038;7.012;2023-11-18T21:04:51;105563.91;;;10.68;100.00
19845;BME280;10083;51.038;7.012;2023-11-18T21:07:20;105545.47;;;10.58;100.00
19845;BME280;10083;51.038;7.012;2023-11-18T21:09:47;105570.44;;;10.73;100.00
19845;BME280;10083;51.038;7.012;2023-11-18T21:12:15;105560.28;;;10.67;100.00
19845;BME280;10083;51.038;7.012;2023-11-18T21:14:46;105570.94;;;10.66;100.00
19845;BME280;10083;51.038;7.012;2023-11-18T21:17:14;105572.78;;;10.67;100.00
19845;BME280;10083;51.038;7.012;2023-11-18T21:19:41;105609.66;;;10.87;100.00
19845;BME280;10083;51.038;7.012;2023-11-18T21:22:09;105605.44;;;10.76;100.00
19845;BME280;10083;51.038;7.012;2023-11-18T21:24:36;105618.03;;;10.77;100.00
19845;BME280;10083;51.038;7.012;2023-11-18T21:27:05;105620.88;;;10.80;100.00
19845;BME280;10083;51.038;7.012;2023-11-18T21:29:33;105643.91;;;10.93;100.00
19845;BME280;10083;51.038;7.012;2023-11-18T21:32:02;105642.97;;;10.92;100.00
19845;BME280;10083;51.038;7.012;2023-11-18T21:34:33;105634.88;;;10.91;100.00
19845;BME280;10083;51.038;7.012;2023-11-18T21:37:01;105621.50;;;10.92;100.00
19845;BME280;10083;51.038;7.012;2023-11-18T21:39:28;105640.72;;;11.00;100.00
19845;BME280;10083;51.038;7.012;2023-11-18T21:41:59;105623.41;;;11.11;100.00
19845;BME280;10083;51.038;7.012;2023-11-18T21:44:33;105595.41;;;11.06;100.00
19845;BME280;10083;51.038;7.012;2023-11-18T21:47:05;105564.72;;;11.17;100.00
19845;BME280;10083;51.038;7.012;2023-11-18T21:49:37;105541.50;;;11.17;100.00
19845;BME280;10083;51.038;7.012;2023-11-18T21:52:06;105494.63;;;11.11;100.00
19845;BME280;10083;51.038;7.012;2023-11-18T21:54:37;105470.72;;;11.15;100.00
19845;BME280;10083;51.038;7.012;2023-11-18T21:57:04;105483.63;;;11.22;100.00
19845;BME280;10083;51.038;7.012;2023-11-18T21:59:33;105453.19;;;11.22;100.00
19845;BME280;10083;51.038;7.012;2023-11-18T22:02:00;105391.22;;;11.17;100.00
19845;BME280;10083;51.038;7.012;2023-11-18T22:04:30;105367.34;;;11.23;100.00
19845;BME280;10083;51.038;7.012;2023-11-18T22:07:00;105323.97;;;11.14;100.00
19845;BME280;10083;51.038;7.012;2023-11-18T22:09:31;105342.00;;;11.36;100.00
19845;BME280;10083;51.038;7.012;2023-11-18T22:11:58;105315.97;;;11.33;100.00
19845;BME280;10083;51.038;7.012;2023-11-18T22:14:26;105283.97;;;11.38;100.00
19845;BME280;10083;51.038;7.012;2023-11-18T22:17:09;105230.88;;;11.31;100.00
19845;BME280;10083;51.038;7.012;2023-11-18T22:19:42;105217.63;;;11.35;100.00
19845;BME280;10083;51.038;7.012;2023-11-18T22:22:12;105202.22;;;11.31;100.00
19845;BME280;10083;51.038;7.012;2023-11-18T22:24:41;105213.25;;;11.38;100.00
19845;BME280;10083;51.038;7.012;2023-11-18T22:27:14;105189.31;;;11.42;100.00
19845;BME280;10083;51.038;7.012;2023-11-18T22:29:42;105176.50;;;11.37;100.00
19845;BME280;10083;51.038;7.012;2023-11-18T22:32:09;105212.13;;;11.52;100.00
19845;BME280;10083;51.038;7.012;2023-11-18T22:34:46;105187.66;;;11.46;100.00
19845;BME280;10083;51.038;7.012;2023-11-18T22:37:21;105140.78;;;11.38;100.00
19845;BME280;10083;51.038;7.012;2023-11-18T22:39:53;105188.50;;;11.45;100.00
19845;BME280;10083;51.038;7.012;2023-11-18T22:59:38;105621.06;;;11.51;100.00
19845;BME280;10083;51.038;7.012;2023-11-18T23:02:06;105669.28;;;11.49;100.00
19845;BME280;10083;51.038;7.012;2023-11-18T23:04:36;105707.25;;;11.39;100.00
19845;BME280;10083;51.038;7.012;2023-11-18T23:07:05;105772.78;;;11.43;100.00
19845;BME280;10083;51.038;7.012;2023-11-18T23:09:38;105813.34;;;11.49;100.00
19845;BME280;10083;51.038;7.012;2023-11-18T23:12:07;105839.63;;;11.38;100.00
19845;BME280;10083;51.038;7.012;2023-11-18T23:14:46;105935.38;;;11.54;100.00
19845;BME280;10083;51.038;7.012;2023-11-18T23:17:18;105973.72;;;11.51;100.00